Airfield :
LOGIN :

Register | Disclaimer

   EN    FR    IT 

 










Legend :    VFR   Marginal VFR   IFR   Intensive IFR   Very Intensive IFR
Visi :
Ceiling :
>= 8 km
>= 3000ft
5 to 8 km
1000 to 3000 ft
1500m to 5 km
500 to 1000 ft
800 to 1500m
200 to 500 ft
< 800m
< 200 ft
Symbols :   Thunderstorms  Fog  Heavy snow  Heavy precipitations  Wind > 20 kt
SIGMETs :     Misc.  Thunderstorms  Icing  Turbulence  Mountain Waves  Volcanic Ashes






- Airport Elevation : 102 ft
- IATA code : CNG


LFBG - Cognac

CURRENT METAR :
  • 101300Z AUTO 17009KT CAVOK 11/05 Q1026 NOSIG

EXPIRED METARs :
  • 101230Z AUTO 17011KT CAVOK 11/04 Q1026 NOSIG
  • 101200Z AUTO 17012KT CAVOK 10/05 Q1027 NOSIG
  • 101130Z AUTO 18012KT CAVOK 10/05 Q1028 NOSIG
  • 101100Z AUTO 17012KT CAVOK 09/05 Q1028 NOSIG
  • 101030Z AUTO 16008KT 9999 FEW034 OVC240 08/05 Q1029 NOSIG

TAF TAF LFBG
Valid from the 10 at 09:00 until the 11 at 09:00 UTC


100800Z 1009/1109 12003KT 8000 NSC
PROB40 1009/1011 SCT005
BECMG 1011/1012 16010KT
BECMG 1101/1103 4000 RA BKN005 OVC015
BECMG 1107/1109 22010KT 9999 NSW SCT020TCU



MET'MAP, your aeronautical weather chart ! - Copyright ORBIFLY December 2007 - Disclaimer

ORBIFLY MET'MAP TEAM :

Programming & Development : Alexandra Zaïnal
Concept & original design : Baudouin d'Aumeries
Assistance for programming : Marc-Olivier Méhu
Technical & hardware support : Manuel Goepfert

Contact : metmap@orbifly.com




SOURCES & CREDITS :

   NOAA